sensor_id;sensor_type;location;lat;lon;timestamp;P1;P2;P0
78912;PMS5003;68303;53.514;-8.850;2023-03-01T00:01:14;5;5;
78912;PMS5003;68303;53.514;-8.850;2023-03-01T00:03:39;5;5;
78912;PMS5003;68303;53.514;-8.850;2023-03-01T00:06:04;5;5;
78912;PMS5003;68303;53.514;-8.850;2023-03-01T00:08:29;10;8;
78912;PMS5003;68303;53.514;-8.850;2023-03-01T00:11:00;5;5;
78912;PMS5003;68303;53.514;-8.850;2023-03-01T00:13:19;7;5;
78912;PMS5003;68303;53.514;-8.850;2023-03-01T00:15:45;4;4;
78912;PMS5003;68303;53.514;-8.850;2023-03-01T00:18:10;5;5;
78912;PMS5003;68303;53.514;-8.850;2023-03-01T00:20:35;5;5;
78912;PMS5003;68303;53.514;-8.850;2023-03-01T00:23:00;6;5;
78912;PMS5003;68303;53.514;-8.850;2023-03-01T00:25:26;3;3;
78912;PMS5003;68303;53.514;-8.850;2023-03-01T00:27:51;4;4;
78912;PMS5003;68303;53.514;-8.850;2023-03-01T00:30:16;4;4;
78912;PMS5003;68303;53.514;-8.850;2023-03-01T00:32:41;4;4;
78912;PMS5003;68303;53.514;-8.850;2023-03-01T00:35:07;5;5;
78912;PMS5003;68303;53.514;-8.850;2023-03-01T00:37:32;5;5;
78912;PMS5003;68303;53.514;-8.850;2023-03-01T00:39:57;5;5;
78912;PMS5003;68303;53.514;-8.850;2023-03-01T00:42:22;2;2;
78912;PMS5003;68303;53.514;-8.850;2023-03-01T00:44:47;4;4;
78912;PMS5003;68303;53.514;-8.850;2023-03-01T00:47:13;6;5;
78912;PMS5003;68303;53.514;-8.850;2023-03-01T00:49:38;6;5;
78912;PMS5003;68303;53.514;-8.850;2023-03-01T00:52:03;7;6;
78912;PMS5003;68303;53.514;-8.850;2023-03-01T00:54:28;5;5;
78912;PMS5003;68303;53.514;-8.850;2023-03-01T00:56:54;4;4;
78912;PMS5003;68303;53.514;-8.850;2023-03-01T00:59:19;3;3;
78912;PMS5003;68303;53.514;-8.850;2023-03-01T01:01:44;3;3;
78912;PMS5003;68303;53.514;-8.850;2023-03-01T01:04:11;6;5;
78912;PMS5003;68303;53.514;-8.850;2023-03-01T01:06:36;3;3;
78912;PMS5003;68303;53.514;-8.850;2023-03-01T01:09:01;4;4;
78912;PMS5003;68303;53.514;-8.850;2023-03-01T01:11:27;5;3;
78912;PMS5003;68303;53.514;-8.850;2023-03-01T01:13:51;3;3;
78912;PMS5003;68303;53.514;-8.850;2023-03-01T01:16:17;3;3;
78912;PMS5003;68303;53.514;-8.850;2023-03-01T01:18:42;5;5;
78912;PMS5003;68303;53.514;-8.850;2023-03-01T01:21:08;6;6;
78912;PMS5003;68303;53.514;-8.850;2023-03-01T01:23:33;4;3;
78912;PMS5003;68303;53.514;-8.850;2023-03-01T01:26:02;2;2;
78912;PMS5003;68303;53.514;-8.850;2023-03-01T01:28:23;4;4;
78912;PMS5003;68303;53.514;-8.850;2023-03-01T01:30:48;5;5;
78912;PMS5003;68303;53.514;-8.850;2023-03-01T01:33:18;6;5;
78912;PMS5003;68303;53.514;-8.850;2023-03-01T01:35:39;4;4;
78912;PMS5003;68303;53.514;-8.850;2023-03-01T01:38:04;2;2;
78912;PMS5003;68303;53.514;-8.850;2023-03-01T01:40:29;4;4;
78912;PMS5003;68303;53.514;-8.850;2023-03-01T01:42:54;3;3;
78912;PMS5003;68303;53.514;-8.850;2023-03-01T01:45:26;5;5;
78912;PMS5003;68303;53.514;-8.850;2023-03-01T01:47:45;3;3;
78912;PMS5003;68303;53.514;-8.850;2023-03-01T01:50:10;4;4;
78912;PMS5003;68303;53.514;-8.850;2023-03-01T01:52:36;4;4;
78912;PMS5003;68303;53.514;-8.850;2023-03-01T01:55:02;3;3;
78912;PMS5003;68303;53.514;-8.850;2023-03-01T01:57:27;4;4;
78912;PMS5003;68303;53.514;-8.850;2023-03-01T01:59:52;5;5;
78912;PMS5003;68303;53.514;-8.850;2023-03-01T02:02:17;3;3;
78912;PMS5003;68303;53.514;-8.850;2023-03-01T02:04:42;4;4;
78912;PMS5003;68303;53.514;-8.850;2023-03-01T02:07:09;5;5;
78912;PMS5003;68303;53.514;-8.850;2023-03-01T02:09:32;2;2;
78912;PMS5003;68303;53.514;-8.850;2023-03-01T02:11:58;7;5;
78912;PMS5003;68303;53.514;-8.850;2023-03-01T02:14:23;6;6;
78912;PMS5003;68303;53.514;-8.850;2023-03-01T02:16:48;5;4;
78912;PMS5003;68303;53.514;-8.850;2023-03-01T02:19:15;4;3;
78912;PMS5003;68303;53.514;-8.850;2023-03-01T02:21:41;6;6;
78912;PMS5003;68303;53.514;-8.850;2023-03-01T02:24:05;3;3;
78912;PMS5003;68303;53.514;-8.850;2023-03-01T02:26:30;4;4;
78912;PMS5003;68303;53.514;-8.850;2023-03-01T02:28:54;4;4;
78912;PMS5003;68303;53.514;-8.850;2023-03-01T02:31:20;5;4;
78912;PMS5003;68303;53.514;-8.850;2023-03-01T02:33:45;3;3;
78912;PMS5003;68303;53.514;-8.850;2023-03-01T02:36:10;5;5;
78912;PMS5003;68303;53.514;-8.850;2023-03-01T02:38:35;4;4;
78912;PMS5003;68303;53.514;-8.850;2023-03-01T02:41:00;5;4;
78912;PMS5003;68303;53.514;-8.850;2023-03-01T02:43:27;3;3;
78912;PMS5003;68303;53.514;-8.850;2023-03-01T02:45:52;3;3;
78912;PMS5003;68303;53.514;-8.850;2023-03-01T02:48:17;4;4;
78912;PMS5003;68303;53.514;-8.850;2023-03-01T02:50:45;4;4;
78912;PMS5003;68303;53.514;-8.850;2023-03-01T02:53:08;5;4;
78912;PMS5003;68303;53.514;-8.850;2023-03-01T02:55:32;4;4;
78912;PMS5003;68303;53.514;-8.850;2023-03-01T02:57:58;5;4;
78912;PMS5003;68303;53.514;-8.850;2023-03-01T03:00:24;4;4;
78912;PMS5003;68303;53.514;-8.850;2023-03-01T03:02:49;4;4;
78912;PMS5003;68303;53.514;-8.850;2023-03-01T03:05:14;2;2;
78912;PMS5003;68303;53.514;-8.850;2023-03-01T03:07:40;4;4;
78912;PMS5003;68303;53.514;-8.850;2023-03-01T03:10:05;4;4;
78912;PMS5003;68303;53.514;-8.850;2023-03-01T03:12:29;2;2;
78912;PMS5003;68303;53.514;-8.850;2023-03-01T03:14:54;5;5;
78912;PMS5003;68303;53.514;-8.850;2023-03-01T03:17:20;3;3;
78912;PMS5003;68303;53.514;-8.850;2023-03-01T03:19:45;3;2;
78912;PMS5003;68303;53.514;-8.850;2023-03-01T03:22:10;4;4;
78912;PMS5003;68303;53.514;-8.850;2023-03-01T03:24:35;2;2;
78912;PMS5003;68303;53.514;-8.850;2023-03-01T03:27:01;4;4;
78912;PMS5003;68303;53.514;-8.850;2023-03-01T03:29:26;2;2;
78912;PMS5003;68303;53.514;-8.850;2023-03-01T03:31:51;4;4;
78912;PMS5003;68303;53.514;-8.850;2023-03-01T03:34:16;5;5;
78912;PMS5003;68303;53.514;-8.850;2023-03-01T03:36:42;4;4;
78912;PMS5003;68303;53.514;-8.850;2023-03-01T03:39:07;4;4;
78912;PMS5003;68303;53.514;-8.850;2023-03-01T03:41:34;4;4;
78912;PMS5003;68303;53.514;-8.850;2023-03-01T03:43:57;6;5;
78912;PMS5003;68303;53.514;-8.850;2023-03-01T03:46:22;4;4;
78912;PMS5003;68303;53.514;-8.850;2023-03-01T03:48:48;4;4;
78912;PMS5003;68303;53.514;-8.850;2023-03-01T03:51:14;5;5;
78912;PMS5003;68303;53.514;-8.850;2023-03-01T03:53:38;3;3;
78912;PMS5003;68303;53.514;-8.850;2023-03-01T03:56:04;4;4;
78912;PMS5003;68303;53.514;-8.850;2023-03-01T03:58:29;3;3;
78912;PMS5003;68303;53.514;-8.850;2023-03-01T04:00:55;2;2;
78912;PMS5003;68303;53.514;-8.850;2023-03-01T04:03:20;5;4;
78912;PMS5003;68303;53.514;-8.850;2023-03-01T04:05:45;4;4;
78912;PMS5003;68303;53.514;-8.850;2023-03-01T04:08:10;3;3;
78912;PMS5003;68303;53.514;-8.850;2023-03-01T04:10:35;4;3;
78912;PMS5003;68303;53.514;-8.850;2023-03-01T04:13:00;4;4;
78912;PMS5003;68303;53.514;-8.850;2023-03-01T04:15:26;5;5;
78912;PMS5003;68303;53.514;-8.850;2023-03-01T04:17:51;3;3;
78912;PMS5003;68303;53.514;-8.850;2023-03-01T04:20:17;3;3;
78912;PMS5003;68303;53.514;-8.850;2023-03-01T04:22:41;3;3;
78912;PMS5003;68303;53.514;-8.850;2023-03-01T04:25:07;3;3;
78912;PMS5003;68303;53.514;-8.850;2023-03-01T04:27:32;4;4;
78912;PMS5003;68303;53.514;-8.850;2023-03-01T04:29:57;3;3;
78912;PMS5003;68303;53.514;-8.850;2023-03-01T04:32:22;3;3;
78912;PMS5003;68303;53.514;-8.850;2023-03-01T04:34:47;2;2;
78912;PMS5003;68303;53.514;-8.850;2023-03-01T04:37:13;2;2;
78912;PMS5003;68303;53.514;-8.850;2023-03-01T04:39:38;4;4;
78912;PMS5003;68303;53.514;-8.850;2023-03-01T04:42:03;6;4;
78912;PMS5003;68303;53.514;-8.850;2023-03-01T04:44:28;3;3;
78912;PMS5003;68303;53.514;-8.850;2023-03-01T04:46:53;3;3;
78912;PMS5003;68303;53.514;-8.850;2023-03-01T04:49:19;3;3;
78912;PMS5003;68303;53.514;-8.850;2023-03-01T04:51:44;4;4;
78912;PMS5003;68303;53.514;-8.850;2023-03-01T04:54:09;4;4;
78912;PMS5003;68303;53.514;-8.850;2023-03-01T04:56:35;4;4;
78912;PMS5003;68303;53.514;-8.850;2023-03-01T04:59:00;3;3;
78912;PMS5003;68303;53.514;-8.850;2023-03-01T05:01:25;4;4;
78912;PMS5003;68303;53.514;-8.850;2023-03-01T05:03:51;3;3;
78912;PMS5003;68303;53.514;-8.850;2023-03-01T05:06:16;2;2;
78912;PMS5003;68303;53.514;-8.850;2023-03-01T05:08:41;2;2;
78912;PMS5003;68303;53.514;-8.850;2023-03-01T05:11:06;4;4;
78912;PMS5003;68303;53.514;-8.850;2023-03-01T05:13:31;2;2;
78912;PMS5003;68303;53.514;-8.850;2023-03-01T05:15:57;3;3;
78912;PMS5003;68303;53.514;-8.850;2023-03-01T05:18:22;4;4;
78912;PMS5003;68303;53.514;-8.850;2023-03-01T05:20:47;3;3;
78912;PMS5003;68303;53.514;-8.850;2023-03-01T05:23:12;3;3;
78912;PMS5003;68303;53.514;-8.850;2023-03-01T05:25:37;2;2;
78912;PMS5003;68303;53.514;-8.850;2023-03-01T05:28:03;3;3;
78912;PMS5003;68303;53.514;-8.850;2023-03-01T05:30:28;2;2;
78912;PMS5003;68303;53.514;-8.850;2023-03-01T05:32:53;3;3;
78912;PMS5003;68303;53.514;-8.850;2023-03-01T05:35:18;3;3;
78912;PMS5003;68303;53.514;-8.850;2023-03-01T05:37:44;3;3;
78912;PMS5003;68303;53.514;-8.850;2023-03-01T05:40:10;12;9;
78912;PMS5003;68303;53.514;-8.850;2023-03-01T05:42:34;15;12;
78912;PMS5003;68303;53.514;-8.850;2023-03-01T05:45:00;7;6;
78912;PMS5003;68303;53.514;-8.850;2023-03-01T05:47:25;5;5;
78912;PMS5003;68303;53.514;-8.850;2023-03-01T05:49:50;6;6;
78912;PMS5003;68303;53.514;-8.850;2023-03-01T05:52:15;4;4;
78912;PMS5003;68303;53.514;-8.850;2023-03-01T05:54:41;6;6;
78912;PMS5003;68303;53.514;-8.850;2023-03-01T05:57:06;5;5;
78912;PMS5003;68303;53.514;-8.850;2023-03-01T05:59:32;6;4;
78912;PMS5003;68303;53.514;-8.850;2023-03-01T06:01:57;7;6;
78912;PMS5003;68303;53.514;-8.850;2023-03-01T06:04:22;8;8;
78912;PMS5003;68303;53.514;-8.850;2023-03-01T06:06:47;7;7;
78912;PMS5003;68303;53.514;-8.850;2023-03-01T06:09:13;14;10;
78912;PMS5003;68303;53.514;-8.850;2023-03-01T06:11:38;5;5;
78912;PMS5003;68303;53.514;-8.850;2023-03-01T06:14:03;4;4;
78912;PMS5003;68303;53.514;-8.850;2023-03-01T06:16:29;7;6;
78912;PMS5003;68303;53.514;-8.850;2023-03-01T06:18:54;5;5;
78912;PMS5003;68303;53.514;-8.850;2023-03-01T06:21:19;6;6;
78912;PMS5003;68303;53.514;-8.850;2023-03-01T06:23:44;4;4;
78912;PMS5003;68303;53.514;-8.850;2023-03-01T06:26:10;5;5;
78912;PMS5003;68303;53.514;-8.850;2023-03-01T06:28:35;4;4;
78912;PMS5003;68303;53.514;-8.850;2023-03-01T06:31:01;4;4;
78912;PMS5003;68303;53.514;-8.850;2023-03-01T06:33:26;6;6;
78912;PMS5003;68303;53.514;-8.850;2023-03-01T06:35:51;4;4;
78912;PMS5003;68303;53.514;-8.850;2023-03-01T06:38:17;6;6;
78912;PMS5003;68303;53.514;-8.850;2023-03-01T06:40:42;5;5;
78912;PMS5003;68303;53.514;-8.850;2023-03-01T06:43:07;5;5;
78912;PMS5003;68303;53.514;-8.850;2023-03-01T06:45:32;5;3;
78912;PMS5003;68303;53.514;-8.850;2023-03-01T06:48:01;5;5;
78912;PMS5003;68303;53.514;-8.850;2023-03-01T06:50:23;5;5;
78912;PMS5003;68303;53.514;-8.850;2023-03-01T06:52:48;9;5;
78912;PMS5003;68303;53.514;-8.850;2023-03-01T06:55:13;7;6;
78912;PMS5003;68303;53.514;-8.850;2023-03-01T06:57:39;5;5;
78912;PMS5003;68303;53.514;-8.850;2023-03-01T07:00:04;5;5;
78912;PMS5003;68303;53.514;-8.850;2023-03-01T07:02:29;4;4;
78912;PMS5003;68303;53.514;-8.850;2023-03-01T07:04:54;4;4;
78912;PMS5003;68303;53.514;-8.850;2023-03-01T07:07:20;5;5;
78912;PMS5003;68303;53.514;-8.850;2023-03-01T07:09:45;7;5;
78912;PMS5003;68303;53.514;-8.850;2023-03-01T07:12:10;8;6;
78912;PMS5003;68303;53.514;-8.850;2023-03-01T07:14:36;9;8;
78912;PMS5003;68303;53.514;-8.850;2023-03-01T07:17:01;5;5;
78912;PMS5003;68303;53.514;-8.850;2023-03-01T07:19:26;8;7;
78912;PMS5003;68303;53.514;-8.850;2023-03-01T07:21:52;7;7;
78912;PMS5003;68303;53.514;-8.850;2023-03-01T07:24:18;10;8;
78912;PMS5003;68303;53.514;-8.850;2023-03-01T07:26:47;13;9;
78912;PMS5003;68303;53.514;-8.850;2023-03-01T07:29:10;10;9;
78912;PMS5003;68303;53.514;-8.850;2023-03-01T07:31:36;14;13;
78912;PMS5003;68303;53.514;-8.850;2023-03-01T07:34:02;18;17;
78912;PMS5003;68303;53.514;-8.850;2023-03-01T07:36:27;16;14;
78912;PMS5003;68303;53.514;-8.850;2023-03-01T07:38:53;11;11;
78912;PMS5003;68303;53.514;-8.850;2023-03-01T07:41:18;8;7;
78912;PMS5003;68303;53.514;-8.850;2023-03-01T07:43:43;10;8;
78912;PMS5003;68303;53.514;-8.850;2023-03-01T07:46:09;7;6;
78912;PMS5003;68303;53.514;-8.850;2023-03-01T07:48:34;9;9;
78912;PMS5003;68303;53.514;-8.850;2023-03-01T07:51:00;17;14;
78912;PMS5003;68303;53.514;-8.850;2023-03-01T07:53:25;9;7;
78912;PMS5003;68303;53.514;-8.850;2023-03-01T07:58:15;6;6;
78912;PMS5003;68303;53.514;-8.850;2023-03-01T08:00:41;9;7;
78912;PMS5003;68303;53.514;-8.850;2023-03-01T08:03:06;14;11;
78912;PMS5003;68303;53.514;-8.850;2023-03-01T08:05:32;7;5;
78912;PMS5003;68303;53.514;-8.850;2023-03-01T08:07:57;7;7;
78912;PMS5003;68303;53.514;-8.850;2023-03-01T08:10:23;11;9;
78912;PMS5003;68303;53.514;-8.850;2023-03-01T08:12:50;17;14;
78912;PMS5003;68303;53.514;-8.850;2023-03-01T08:15:14;23;18;
78912;PMS5003;68303;53.514;-8.850;2023-03-01T08:17:39;26;26;
78912;PMS5003;68303;53.514;-8.850;2023-03-01T08:20:05;24;22;
78912;PMS5003;68303;53.514;-8.850;2023-03-01T08:22:29;20;20;
78912;PMS5003;68303;53.514;-8.850;2023-03-01T08:24:54;17;17;
78912;PMS5003;68303;53.514;-8.850;2023-03-01T08:27:19;18;16;
78912;PMS5003;68303;53.514;-8.850;2023-03-01T08:29:45;16;16;
78912;PMS5003;68303;53.514;-8.850;2023-03-01T08:32:11;21;18;
78912;PMS5003;68303;53.514;-8.850;2023-03-01T08:34:36;18;15;
78912;PMS5003;68303;53.514;-8.850;2023-03-01T08:37:01;20;15;
78912;PMS5003;68303;53.514;-8.850;2023-03-01T08:39:27;19;18;
78912;PMS5003;68303;53.514;-8.850;2023-03-01T08:41:53;16;14;
78912;PMS5003;68303;53.514;-8.850;2023-03-01T08:44:18;17;17;
78912;PMS5003;68303;53.514;-8.850;2023-03-01T08:46:44;19;15;
78912;PMS5003;68303;53.514;-8.850;2023-03-01T08:49:10;15;15;
78912;PMS5003;68303;53.514;-8.850;2023-03-01T08:51:34;12;12;
78912;PMS5003;68303;53.514;-8.850;2023-03-01T08:53:59;13;12;
78912;PMS5003;68303;53.514;-8.850;2023-03-01T08:56:25;13;13;
78912;PMS5003;68303;53.514;-8.850;2023-03-01T08:58:50;14;14;
78912;PMS5003;68303;53.514;-8.850;2023-03-01T09:01:17;12;11;
78912;PMS5003;68303;53.514;-8.850;2023-03-01T09:03:41;14;14;
78912;PMS5003;68303;53.514;-8.850;2023-03-01T09:06:07;16;14;
78912;PMS5003;68303;53.514;-8.850;2023-03-01T09:08:33;11;11;
78912;PMS5003;68303;53.514;-8.850;2023-03-01T09:10:58;13;12;
78912;PMS5003;68303;53.514;-8.850;2023-03-01T11:56:27;7;7;
78912;PMS5003;68303;53.514;-8.850;2023-03-01T11:58:54;5;5;
78912;PMS5003;68303;53.514;-8.850;2023-03-01T12:01:19;7;5;
78912;PMS5003;68303;53.514;-8.850;2023-03-01T12:03:43;5;5;
78912;PMS5003;68303;53.514;-8.850;2023-03-01T12:06:09;7;6;
78912;PMS5003;68303;53.514;-8.850;2023-03-01T12:08:31;5;5;
78912;PMS5003;68303;53.514;-8.850;2023-03-01T12:10:57;8;6;
78912;PMS5003;68303;53.514;-8.850;2023-03-01T12:13:23;8;7;
78912;PMS5003;68303;53.514;-8.850;2023-03-01T12:15:48;10;6;
78912;PMS5003;68303;53.514;-8.850;2023-03-01T12:18:14;6;6;
78912;PMS5003;68303;53.514;-8.850;2023-03-01T12:20:36;5;5;
78912;PMS5003;68303;53.514;-8.850;2023-03-01T12:23:05;8;7;
78912;PMS5003;68303;53.514;-8.850;2023-03-01T12:25:28;4;4;
78912;PMS5003;68303;53.514;-8.850;2023-03-01T12:28:01;4;4;
78912;PMS5003;68303;53.514;-8.850;2023-03-01T12:30:21;8;6;
78912;PMS5003;68303;53.514;-8.850;2023-03-01T12:32:45;7;6;
78912;PMS5003;68303;53.514;-8.850;2023-03-01T12:37:36;7;7;
78912;PMS5003;68303;53.514;-8.850;2023-03-01T12:40:03;6;6;
78912;PMS5003;68303;53.514;-8.850;2023-03-01T12:42:26;10;7;
78912;PMS5003;68303;53.514;-8.850;2023-03-01T12:44:53;7;6;
78912;PMS5003;68303;53.514;-8.850;2023-03-01T12:47:18;4;4;
78912;PMS5003;68303;53.514;-8.850;2023-03-01T12:49:40;6;5;
78912;PMS5003;68303;53.514;-8.850;2023-03-01T12:52:09;6;4;
78912;PMS5003;68303;53.514;-8.850;2023-03-01T12:54:30;5;5;
78912;PMS5003;68303;53.514;-8.850;2023-03-01T12:56:55;8;6;
78912;PMS5003;68303;53.514;-8.850;2023-03-01T12:59:21;4;4;
78912;PMS5003;68303;53.514;-8.850;2023-03-01T13:01:48;9;6;
78912;PMS5003;68303;53.514;-8.850;2023-03-01T13:04:16;9;5;
78912;PMS5003;68303;53.514;-8.850;2023-03-01T13:06:38;13;9;
78912;PMS5003;68303;53.514;-8.850;2023-03-01T13:09:03;6;6;
78912;PMS5003;68303;53.514;-8.850;2023-03-01T13:11:27;6;5;
78912;PMS5003;68303;53.514;-8.850;2023-03-01T13:13:52;8;4;
78912;PMS5003;68303;53.514;-8.850;2023-03-01T13:16:22;5;4;
78912;PMS5003;68303;53.514;-8.850;2023-03-01T13:18:42;8;6;
78912;PMS5003;68303;53.514;-8.850;2023-03-01T13:21:08;8;5;
78912;PMS5003;68303;53.514;-8.850;2023-03-01T13:23:34;2;2;
78912;PMS5003;68303;53.514;-8.850;2023-03-01T13:26:01;9;6;
78912;PMS5003;68303;53.514;-8.850;2023-03-01T13:28:36;5;5;
78912;PMS5003;68303;53.514;-8.850;2023-03-01T13:30:49;8;6;
78912;PMS5003;68303;53.514;-8.850;2023-03-01T13:35:41;8;5;
78912;PMS5003;68303;53.514;-8.850;2023-03-01T13:42:56;10;10;
78912;PMS5003;68303;53.514;-8.850;2023-03-01T13:45:24;6;5;
78912;PMS5003;68303;53.514;-8.850;2023-03-01T13:47:49;8;6;
78912;PMS5003;68303;53.514;-8.850;2023-03-01T13:50:16;6;5;
78912;PMS5003;68303;53.514;-8.850;2023-03-01T13:52:39;4;4;
78912;PMS5003;68303;53.514;-8.850;2023-03-01T13:55:04;6;6;
78912;PMS5003;68303;53.514;-8.850;2023-03-01T13:57:30;5;5;
78912;PMS5003;68303;53.514;-8.850;2023-03-01T13:59:54;5;5;
78912;PMS5003;68303;53.514;-8.850;2023-03-01T14:02:19;5;5;
78912;PMS5003;68303;53.514;-8.850;2023-03-01T14:04:46;7;4;
78912;PMS5003;68303;53.514;-8.850;2023-03-01T14:07:11;4;4;
78912;PMS5003;68303;53.514;-8.850;2023-03-01T14:09:35;6;5;
78912;PMS5003;68303;53.514;-8.850;2023-03-01T14:12:05;5;5;
78912;PMS5003;68303;53.514;-8.850;2023-03-01T14:14:30;5;4;
78912;PMS5003;68303;53.514;-8.850;2023-03-01T14:16:54;9;5;
78912;PMS5003;68303;53.514;-8.850;2023-03-01T14:19:18;6;6;
78912;PMS5003;68303;53.514;-8.850;2023-03-01T14:21:42;8;7;
78912;PMS5003;68303;53.514;-8.850;2023-03-01T14:26:33;5;5;
78912;PMS5003;68303;53.514;-8.850;2023-03-01T14:28:58;4;4;
78912;PMS5003;68303;53.514;-8.850;2023-03-01T14:31:32;3;3;
78912;PMS5003;68303;53.514;-8.850;2023-03-01T14:33:54;9;8;
78912;PMS5003;68303;53.514;-8.850;2023-03-01T14:36:15;9;5;
78912;PMS5003;68303;53.514;-8.850;2023-03-01T14:38:40;6;4;
78912;PMS5003;68303;53.514;-8.850;2023-03-01T14:41:06;7;5;
78912;PMS5003;68303;53.514;-8.850;2023-03-01T14:43:30;5;4;
78912;PMS5003;68303;53.514;-8.850;2023-03-01T14:45:56;4;4;
78912;PMS5003;68303;53.514;-8.850;2023-03-01T14:48:21;4;4;
78912;PMS5003;68303;53.514;-8.850;2023-03-01T14:50:46;5;5;
78912;PMS5003;68303;53.514;-8.850;2023-03-01T14:53:15;7;7;
78912;PMS5003;68303;53.514;-8.850;2023-03-01T14:55:38;3;3;
78912;PMS5003;68303;53.514;-8.850;2023-03-01T14:58:03;3;2;
78912;PMS5003;68303;53.514;-8.850;2023-03-01T15:00:29;2;2;
78912;PMS5003;68303;53.514;-8.850;2023-03-01T15:02:54;4;4;
78912;PMS5003;68303;53.514;-8.850;2023-03-01T15:05:21;4;4;
78912;PMS5003;68303;53.514;-8.850;2023-03-01T15:07:43;6;4;
78912;PMS5003;68303;53.514;-8.850;2023-03-01T15:10:14;3;3;
78912;PMS5003;68303;53.514;-8.850;2023-03-01T15:12:35;6;5;
78912;PMS5003;68303;53.514;-8.850;2023-03-01T15:15:00;8;6;
78912;PMS5003;68303;53.514;-8.850;2023-03-01T15:17:26;9;7;
78912;PMS5003;68303;53.514;-8.850;2023-03-01T15:19:51;6;5;
78912;PMS5003;68303;53.514;-8.850;2023-03-01T15:22:16;5;3;
78912;PMS5003;68303;53.514;-8.850;2023-03-01T15:24:42;4;4;
78912;PMS5003;68303;53.514;-8.850;2023-03-01T15:27:13;5;3;
78912;PMS5003;68303;53.514;-8.850;2023-03-01T15:29:32;3;2;
78912;PMS5003;68303;53.514;-8.850;2023-03-01T15:31:58;5;3;
78912;PMS5003;68303;53.514;-8.850;2023-03-01T15:34:23;4;4;
78912;PMS5003;68303;53.514;-8.850;2023-03-01T15:36:49;2;2;
78912;PMS5003;68303;53.514;-8.850;2023-03-01T15:46:30;4;4;
78912;PMS5003;68303;53.514;-8.850;2023-03-01T15:48:56;5;4;
78912;PMS5003;68303;53.514;-8.850;2023-03-01T15:51:22;3;2;
78912;PMS5003;68303;53.514;-8.850;2023-03-01T15:53:46;5;5;
78912;PMS5003;68303;53.514;-8.850;2023-03-01T15:56:10;2;2;
78912;PMS5003;68303;53.514;-8.850;2023-03-01T15:58:35;6;3;
78912;PMS5003;68303;53.514;-8.850;2023-03-01T16:01:00;6;5;
78912;PMS5003;68303;53.514;-8.850;2023-03-01T16:03:26;6;4;
78912;PMS5003;68303;53.514;-8.850;2023-03-01T16:05:51;5;3;
78912;PMS5003;68303;53.514;-8.850;2023-03-01T16:08:16;5;5;
78912;PMS5003;68303;53.514;-8.850;2023-03-01T16:10:41;4;4;
78912;PMS5003;68303;53.514;-8.850;2023-03-01T16:13:07;6;4;
78912;PMS5003;68303;53.514;-8.850;2023-03-01T16:15:33;5;4;
78912;PMS5003;68303;53.514;-8.850;2023-03-01T16:17:58;6;4;
78912;PMS5003;68303;53.514;-8.850;2023-03-01T16:20:23;5;4;
78912;PMS5003;68303;53.514;-8.850;2023-03-01T16:22:48;4;4;
78912;PMS5003;68303;53.514;-8.850;2023-03-01T16:25:15;7;4;
78912;PMS5003;68303;53.514;-8.850;2023-03-01T16:27:41;5;4;
78912;PMS5003;68303;53.514;-8.850;2023-03-01T16:30:06;5;5;
78912;PMS5003;68303;53.514;-8.850;2023-03-01T16:32:31;6;4;
78912;PMS5003;68303;53.514;-8.850;2023-03-01T16:34:56;4;4;
78912;PMS5003;68303;53.514;-8.850;2023-03-01T16:37:22;4;3;
78912;PMS5003;68303;53.514;-8.850;2023-03-01T16:39:47;5;4;
78912;PMS5003;68303;53.514;-8.850;2023-03-01T16:42:13;4;4;
78912;PMS5003;68303;53.514;-8.850;2023-03-01T16:44:38;4;3;
78912;PMS5003;68303;53.514;-8.850;2023-03-01T16:47:03;2;2;
78912;PMS5003;68303;53.514;-8.850;2023-03-01T16:49:28;4;4;
78912;PMS5003;68303;53.514;-8.850;2023-03-01T16:51:53;4;4;
78912;PMS5003;68303;53.514;-8.850;2023-03-01T16:54:19;8;8;
78912;PMS5003;68303;53.514;-8.850;2023-03-01T16:56:45;6;4;
78912;PMS5003;68303;53.514;-8.850;2023-03-01T16:59:10;5;5;
78912;PMS5003;68303;53.514;-8.850;2023-03-01T17:01:36;9;7;
78912;PMS5003;68303;53.514;-8.850;2023-03-01T17:04:01;8;7;
78912;PMS5003;68303;53.514;-8.850;2023-03-01T17:06:27;8;6;
78912;PMS5003;68303;53.514;-8.850;2023-03-01T17:08:52;8;8;
78912;PMS5003;68303;53.514;-8.850;2023-03-01T17:11:18;9;8;
78912;PMS5003;68303;53.514;-8.850;2023-03-01T17:13:42;8;7;
78912;PMS5003;68303;53.514;-8.850;2023-03-01T17:16:08;8;8;
78912;PMS5003;68303;53.514;-8.850;2023-03-01T17:18:33;8;7;
78912;PMS5003;68303;53.514;-8.850;2023-03-01T17:20:59;6;6;
78912;PMS5003;68303;53.514;-8.850;2023-03-01T17:23:24;8;7;
78912;PMS5003;68303;53.514;-8.850;2023-03-01T17:25:50;7;5;
78912;PMS5003;68303;53.514;-8.850;2023-03-01T17:28:15;7;6;
78912;PMS5003;68303;53.514;-8.850;2023-03-01T17:30:41;9;7;
78912;PMS5003;68303;53.514;-8.850;2023-03-01T17:33:06;7;6;
78912;PMS5003;68303;53.514;-8.850;2023-03-01T17:35:31;7;6;
78912;PMS5003;68303;53.514;-8.850;2023-03-01T17:37:57;5;5;
78912;PMS5003;68303;53.514;-8.850;2023-03-01T17:40:22;5;5;
78912;PMS5003;68303;53.514;-8.850;2023-03-01T17:42:47;8;7;
78912;PMS5003;68303;53.514;-8.850;2023-03-01T17:45:12;7;6;
78912;PMS5003;68303;53.514;-8.850;2023-03-01T17:47:38;6;6;
78912;PMS5003;68303;53.514;-8.850;2023-03-01T17:50:04;6;6;
78912;PMS5003;68303;53.514;-8.850;2023-03-01T17:52:29;6;6;
78912;PMS5003;68303;53.514;-8.850;2023-03-01T17:54:54;5;5;
78912;PMS5003;68303;53.514;-8.850;2023-03-01T17:57:19;5;5;
78912;PMS5003;68303;53.514;-8.850;2023-03-01T17:59:45;6;6;
78912;PMS5003;68303;53.514;-8.850;2023-03-01T18:02:10;6;5;
78912;PMS5003;68303;53.514;-8.850;2023-03-01T18:04:36;6;5;
78912;PMS5003;68303;53.514;-8.850;2023-03-01T18:07:02;7;6;
78912;PMS5003;68303;53.514;-8.850;2023-03-01T18:09:27;6;6;
78912;PMS5003;68303;53.514;-8.850;2023-03-01T18:11:53;5;5;
78912;PMS5003;68303;53.514;-8.850;2023-03-01T18:14:18;5;5;
78912;PMS5003;68303;53.514;-8.850;2023-03-01T18:16:43;5;5;
78912;PMS5003;68303;53.514;-8.850;2023-03-01T18:19:09;5;4;
78912;PMS5003;68303;53.514;-8.850;2023-03-01T18:21:34;8;8;
78912;PMS5003;68303;53.514;-8.850;2023-03-01T18:23:59;8;6;
78912;PMS5003;68303;53.514;-8.850;2023-03-01T18:26:25;6;6;
78912;PMS5003;68303;53.514;-8.850;2023-03-01T18:28:51;6;6;
78912;PMS5003;68303;53.514;-8.850;2023-03-01T18:31:17;5;5;
78912;PMS5003;68303;53.514;-8.850;2023-03-01T18:33:41;6;6;
78912;PMS5003;68303;53.514;-8.850;2023-03-01T18:36:12;6;6;
78912;PMS5003;68303;53.514;-8.850;2023-03-01T18:38:32;5;5;
78912;PMS5003;68303;53.514;-8.850;2023-03-01T18:40:57;7;5;
78912;PMS5003;68303;53.514;-8.850;2023-03-01T18:43:22;5;5;
78912;PMS5003;68303;53.514;-8.850;2023-03-01T18:45:48;7;7;
78912;PMS5003;68303;53.514;-8.850;2023-03-01T18:48:13;10;9;
78912;PMS5003;68303;53.514;-8.850;2023-03-01T18:50:38;5;5;
78912;PMS5003;68303;53.514;-8.850;2023-03-01T18:53:04;6;6;
78912;PMS5003;68303;53.514;-8.850;2023-03-01T18:55:29;6;6;
78912;PMS5003;68303;53.514;-8.850;2023-03-01T18:57:54;5;5;
78912;PMS5003;68303;53.514;-8.850;2023-03-01T19:00:20;7;7;
78912;PMS5003;68303;53.514;-8.850;2023-03-01T19:02:45;8;8;
78912;PMS5003;68303;53.514;-8.850;2023-03-01T19:05:10;9;7;
78912;PMS5003;68303;53.514;-8.850;2023-03-01T19:07:35;7;7;
78912;PMS5003;68303;53.514;-8.850;2023-03-01T19:10:00;6;6;
78912;PMS5003;68303;53.514;-8.850;2023-03-01T19:12:26;7;7;
78912;PMS5003;68303;53.514;-8.850;2023-03-01T19:14:51;6;5;
78912;PMS5003;68303;53.514;-8.850;2023-03-01T19:17:16;8;7;
78912;PMS5003;68303;53.514;-8.850;2023-03-01T19:19:41;8;8;
78912;PMS5003;68303;53.514;-8.850;2023-03-01T19:22:06;8;7;